Time;durP1;ratioP1;P1;durP2;ratioP2;P2;SDS_P1;SDS_P2;PMS_P1;PMS_P2;Temp;Humidity;BMP_temperature;BMP_pressure;BME280_temperature;BME280_humidity;BME280_pressure;Samples;Min_cycle;Max_cycle;Signal;HPM_P1;HPM_P2
2021/11/14 00:01:44;;;;;;;;;;;23.00;45.20;;;;;;1615881;72;723;-59
2021/11/14 00:03:46;;;;;;;;;;;23.00;45.20;;;;;;1611319;72;734;-61
2021/11/14 00:05:48;;;;;;;;;;;23.00;45.20;;;;;;1611308;72;1162;-59
2021/11/14 00:07:50;;;;;;;;;;;23.00;45.20;;;;;;1616435;72;736;-58
2021/11/14 00:09:52;;;;;;;;;;;23.00;45.20;;;;;;1603281;72;861;-59
2021/11/14 00:11:54;;;;;;;;;;;23.00;45.30;;;;;;1611860;72;769;-59
2021/11/14 00:13:58;;;;;;;;;;;23.00;45.30;;;;;;1612662;72;799;-60
2021/11/14 00:15:59;;;;;;;;;;;23.10;45.40;;;;;;1606936;72;1679;-58
2021/11/14 00:18:02;;;;;;;;;;;23.10;45.40;;;;;;1610175;71;764;-59
2021/11/14 00:20:05;;;;;;;;;;;23.00;45.30;;;;;;1621113;72;1923;-60
2021/11/14 00:22:06;;;;;;;;;;;23.00;45.30;;;;;;1619065;72;722;-60
2021/11/14 00:24:09;;;;;;;;;;;23.10;45.50;;;;;;1621875;72;898;-59
2021/11/14 00:26:11;;;;;;;;;;;23.00;45.30;;;;;;1611893;72;1086;-59
2021/11/14 00:28:13;;;;;;;;;;;23.00;45.40;;;;;;1617245;72;750;-58
2021/11/14 00:30:15;;;;;;;;;;;23.00;45.30;;;;;;1615934;72;720;-61
2021/11/14 00:32:17;;;;;;;;;;;23.00;45.30;;;;;;1609042;72;780;-58
2021/11/14 00:34:19;;;;;;;;;;;23.00;45.40;;;;;;1606980;72;699;-58
2021/11/14 00:36:22;;;;;;;;;;;23.10;45.50;;;;;;1624292;72;1076;-58
2021/11/14 00:38:24;;;;;;;;;;;23.00;45.30;;;;;;1618814;72;794;-58
2021/11/14 00:40:27;;;;;;;;;;;23.00;45.30;;;;;;1614822;72;1895;-59
2021/11/14 00:42:29;;;;;;;;;;;23.00;45.40;;;;;;1621519;72;724;-59
2021/11/14 00:44:31;;;;;;;;;;;23.10;45.50;;;;;;1622277;72;654;-59
2021/11/14 00:46:33;;;;;;;;;;;23.10;45.40;;;;;;1617208;72;1099;-61
2021/11/14 00:48:35;;;;;;;;;;;23.00;45.30;;;;;;1611682;72;730;-62
2021/11/14 00:50:42;;;;;;;;;;;23.00;45.20;;;;;;1616127;72;706;-61
2021/11/14 00:52:41;;;;;;;;;;;23.10;45.50;;;;;;1617292;72;1743;-59
2021/11/14 00:54:43;;;;;;;;;;;23.00;45.30;;;;;;1625185;72;725;-59
2021/11/14 00:56:45;;;;;;;;;;;23.00;45.30;;;;;;1620152;72;1137;-58
2021/11/14 00:58:47;;;;;;;;;;;23.00;45.30;;;;;;1602402;72;762;-59
2021/11/14 01:00:48;;;;;;;;;;;23.00;45.30;;;;;;1611846;72;1935;-58
2021/11/14 01:02:51;;;;;;;;;;;23.00;45.30;;;;;;1617292;72;736;-59
2021/11/14 01:04:52;;;;;;;;;;;23.00;45.30;;;;;;1616302;72;742;-58
2021/11/14 01:06:54;;;;;;;;;;;23.00;45.40;;;;;;1611943;72;1107;-58
2021/11/14 01:08:56;;;;;;;;;;;23.00;45.40;;;;;;1602870;72;719;-60
2021/11/14 01:10:59;;;;;;;;;;;23.00;45.40;;;;;;1602056;72;709;-58
2021/11/14 01:13:01;;;;;;;;;;;23.00;45.50;;;;;;1614642;72;678;-61
2021/11/14 01:15:03;;;;;;;;;;;23.00;45.50;;;;;;1613734;72;781;-61
2021/11/14 01:17:05;;;;;;;;;;;23.00;45.50;;;;;;1635403;71;1182;-60
2021/11/14 01:19:07;;;;;;;;;;;23.00;45.50;;;;;;1604985;72;777;-61
2021/11/14 01:21:12;;;;;;;;;;;23.00;45.50;;;;;;1602555;72;1938;-64
2021/11/14 01:23:14;;;;;;;;;;;23.00;45.50;;;;;;1631283;72;1687;-61
2021/11/14 01:25:16;;;;;;;;;;;23.00;45.50;;;;;;1635335;71;1148;-59
2021/11/14 01:27:18;;;;;;;;;;;23.00;45.60;;;;;;1615487;71;718;-60
2021/11/14 01:29:20;;;;;;;;;;;23.00;45.50;;;;;;1619964;72;746;-60
2021/11/14 01:31:21;;;;;;;;;;;23.00;45.50;;;;;;1627319;73;755;-60
2021/11/14 01:33:25;;;;;;;;;;;23.00;45.50;;;;;;1602332;74;711;-59
2021/11/14 01:35:27;;;;;;;;;;;23.00;45.50;;;;;;1603110;72;1154;-59
2021/11/14 01:37:28;;;;;;;;;;;23.00;45.50;;;;;;1614125;73;759;-59
2021/11/14 01:39:32;;;;;;;;;;;23.00;45.50;;;;;;1630918;73;807;-60
2021/11/14 01:41:34;;;;;;;;;;;23.10;45.70;;;;;;1630699;73;1909;-60
2021/11/14 01:43:38;;;;;;;;;;;23.10;45.60;;;;;;1611388;72;747;-58
2021/11/14 01:45:41;;;;;;;;;;;23.00;45.50;;;;;;1633448;73;1863;-59
2021/11/14 01:47:43;;;;;;;;;;;23.00;45.50;;;;;;1635104;73;706;-61
2021/11/14 01:49:44;;;;;;;;;;;23.00;45.50;;;;;;1635358;73;781;-58
2021/11/14 01:51:46;;;;;;;;;;;23.00;45.50;;;;;;1632317;72;764;-60
2021/11/14 01:53:48;;;;;;;;;;;23.00;45.50;;;;;;1630276;72;629;-60
2021/11/14 01:55:50;;;;;;;;;;;23.00;45.50;;;;;;1631027;73;1137;-61
2021/11/14 01:57:52;;;;;;;;;;;23.00;45.50;;;;;;1630430;73;773;-59
2021/11/14 01:59:54;;;;;;;;;;;23.00;45.50;;;;;;1630941;73;1937;-58
2021/11/14 02:01:56;;;;;;;;;;;23.00;45.50;;;;;;1630936;71;753;-58
2021/11/14 02:04:01;;;;;;;;;;;23.00;45.50;;;;;;1629681;72;735;-61
2021/11/14 02:06:04;;;;;;;;;;;23.00;45.60;;;;;;1630909;73;1636;-61
2021/11/14 02:08:06;;;;;;;;;;;23.00;45.60;;;;;;1631035;73;765;-59
2021/11/14 02:10:08;;;;;;;;;;;23.00;45.60;;;;;;1630341;73;763;-59
2021/11/14 02:12:10;;;;;;;;;;;23.00;45.60;;;;;;1630145;72;700;-59
2021/11/14 02:14:12;;;;;;;;;;;23.00;45.60;;;;;;1631074;73;726;-61
2021/11/14 02:16:14;;;;;;;;;;;23.10;45.70;;;;;;1630501;73;1162;-58
2021/11/14 02:18:16;;;;;;;;;;;23.00;45.60;;;;;;1630995;73;803;-59
2021/11/14 02:20:18;;;;;;;;;;;23.00;45.50;;;;;;1613482;72;1941;-60
2021/11/14 02:22:20;;;;;;;;;;;23.00;45.50;;;;;;1601815;74;696;-59
2021/11/14 02:24:22;;;;;;;;;;;23.00;45.60;;;;;;1606890;72;723;-58
2021/11/14 02:26:24;;;;;;;;;;;23.00;45.60;;;;;;1603532;72;1139;-58
2021/11/14 02:28:26;;;;;;;;;;;23.00;45.50;;;;;;1602210;74;694;-60
2021/11/14 02:30:29;;;;;;;;;;;23.00;45.50;;;;;;1602572;74;719;-60
2021/11/14 02:32:31;;;;;;;;;;;23.00;45.50;;;;;;1602077;74;619;-59
2021/11/14 02:34:33;;;;;;;;;;;23.00;45.50;;;;;;1621863;72;673;-58
2021/11/14 02:36:35;;;;;;;;;;;23.00;45.50;;;;;;1614288;71;1114;-59
2021/11/14 02:38:36;;;;;;;;;;;23.00;45.50;;;;;;1664472;71;784;-60
2021/11/14 02:40:38;;;;;;;;;;;23.00;45.50;;;;;;1666346;71;1943;-58
2021/11/14 02:42:40;;;;;;;;;;;23.00;45.50;;;;;;1597095;71;220938;-69
2021/11/14 02:44:42;;;;;;;;;;;23.00;45.50;;;;;;1590465;75;638;-69
2021/11/14 02:46:44;;;;;;;;;;;23.00;45.50;;;;;;1590853;75;646;-67
2021/11/14 02:48:46;;;;;;;;;;;23.00;45.50;;;;;;1591014;75;748;-69
2021/11/14 02:50:48;;;;;;;;;;;23.00;45.50;;;;;;1587870;75;713;-69
2021/11/14 02:52:50;;;;;;;;;;;23.00;45.60;;;;;;1569613;75;1140;-69
2021/11/14 02:54:52;;;;;;;;;;;23.00;45.50;;;;;;1548980;76;735;-69
2021/11/14 02:56:54;;;;;;;;;;;23.00;45.50;;;;;;1537199;77;713;-68
2021/11/14 02:58:57;;;;;;;;;;;23.00;45.50;;;;;;1554816;75;724;-68
2021/11/14 03:01:02;;;;;;;;;;;23.00;45.60;;;;;;1551852;75;1918;-69
2021/11/14 03:03:04;;;;;;;;;;;22.90;45.50;;;;;;1563410;75;1089;-69
2021/11/14 03:05:09;;;;;;;;;;;23.00;45.60;;;;;;1563909;76;773;-70
2021/11/14 03:07:12;;;;;;;;;;;23.00;45.60;;;;;;1555168;76;690;-68
2021/11/14 03:09:14;;;;;;;;;;;23.00;45.60;;;;;;1560517;76;723;-68
2021/11/14 03:11:16;;;;;;;;;;;22.90;45.70;;;;;;1564018;76;549;-70
2021/11/14 03:13:19;;;;;;;;;;;22.90;45.60;;;;;;1563939;76;737;-69
2021/11/14 03:15:21;;;;;;;;;;;22.90;45.60;;;;;;1563634;76;777;-69
2021/11/14 03:17:23;;;;;;;;;;;22.90;45.70;;;;;;1561545;76;774;-69
2021/11/14 03:19:25;;;;;;;;;;;22.90;45.70;;;;;;1563974;76;578;-70
2021/11/14 03:21:27;;;;;;;;;;;22.90;45.70;;;;;;1549521;76;1932;-71
2021/11/14 03:23:29;;;;;;;;;;;22.90;45.70;;;;;;1550878;76;724;-70
2021/11/14 03:25:31;;;;;;;;;;;22.90;45.70;;;;;;1538322;76;736;-69
2021/11/14 03:27:33;;;;;;;;;;;22.90;45.70;;;;;;1537356;77;713;-71
2021/11/14 03:29:35;;;;;;;;;;;22.90;45.70;;;;;;1533786;77;728;-69
2021/11/14 03:31:40;;;;;;;;;;;22.90;45.80;;;;;;1533739;76;1146;-67
2021/11/14 03:33:41;;;;;;;;;;;22.90;45.70;;;;;;1528971;77;1001;-69
2021/11/14 03:35:45;;;;;;;;;;;22.90;45.90;;;;;;1523864;76;805;-69
2021/11/14 03:37:47;;;;;;;;;;;22.90;45.90;;;;;;1531740;77;806;-67
2021/11/14 03:39:49;;;;;;;;;;;22.90;46.00;;;;;;1531717;77;807;-67
2021/11/14 03:41:54;;;;;;;;;;;23.00;46.00;;;;;;1531778;76;1920;-68
2021/11/14 03:43:54;;;;;;;;;;;23.00;46.00;;;;;;1524696;76;1086;-68
2021/11/14 03:45:56;;;;;;;;;;;23.00;46.00;;;;;;1528889;78;543;-68
2021/11/14 03:47:58;;;;;;;;;;;23.00;46.00;;;;;;1529009;78;676;-69
2021/11/14 03:50:00;;;;;;;;;;;23.00;46.00;;;;;;1528733;78;750;-70
2021/11/14 03:52:04;;;;;;;;;;;23.00;46.00;;;;;;1529688;76;1075;-67
2021/11/14 03:54:05;;;;;;;;;;;23.00;46.00;;;;;;1532923;76;1745;-68
2021/11/14 03:56:07;;;;;;;;;;;23.10;46.00;;;;;;1554652;76;696;-65
2021/11/14 03:58:09;;;;;;;;;;;23.10;46.00;;;;;;1554779;76;611;-68
2021/11/14 04:00:12;;;;;;;;;;;23.20;45.90;;;;;;1554856;76;787;-69
2021/11/14 04:02:14;;;;;;;;;;;23.20;45.80;;;;;;1554338;75;1932;-67
2021/11/14 04:04:16;;;;;;;;;;;23.30;45.80;;;;;;1547184;76;783;-67
2021/11/14 04:06:18;;;;;;;;;;;23.30;45.70;;;;;;1529037;78;697;-68
2021/11/14 04:08:22;;;;;;;;;;;23.30;45.50;;;;;;1543535;76;701;-68
2021/11/14 04:10:23;;;;;;;;;;;23.50;45.50;;;;;;1555335;76;672;-70
2021/11/14 04:12:25;;;;;;;;;;;23.50;45.30;;;;;;1551100;75;1192;-69
2021/11/14 04:14:27;;;;;;;;;;;23.60;45.20;;;;;;1528695;78;729;-69
2021/11/14 04:16:29;;;;;;;;;;;23.60;45.10;;;;;;1529007;78;684;-70
2021/11/14 04:18:31;;;;;;;;;;;23.70;45.10;;;;;;1528908;78;708;-70
2021/11/14 04:20:33;;;;;;;;;;;23.60;44.90;;;;;;1528651;78;673;-71
2021/11/14 04:22:35;;;;;;;;;;;23.70;45.10;;;;;;1529635;76;1929;-71
2021/11/14 04:24:37;;;;;;;;;;;23.60;45.00;;;;;;1529528;76;752;-70
2021/11/14 04:26:39;;;;;;;;;;;23.70;45.00;;;;;;1546910;76;682;-70
2021/11/14 04:28:41;;;;;;;;;;;23.70;45.00;;;;;;1547039;76;720;-71
2021/11/14 04:30:43;;;;;;;;;;;23.80;44.90;;;;;;1554532;76;742;-71
2021/11/14 04:32:45;;;;;;;;;;;23.80;44.90;;;;;;1553492;76;1459;-71
2021/11/14 04:34:47;;;;;;;;;;;23.70;44.70;;;;;;1554818;76;747;-68
2021/11/14 04:36:49;;;;;;;;;;;23.80;44.70;;;;;;1554489;76;762;-68
2021/11/14 04:38:50;;;;;;;;;;;23.80;44.70;;;;;;1554852;76;775;-70
2021/11/14 04:40:52;;;;;;;;;;;23.70;44.80;;;;;;1541176;76;1947;-69
2021/11/14 04:42:54;;;;;;;;;;;23.70;44.80;;;;;;1530520;76;1146;-70
2021/11/14 04:44:56;;;;;;;;;;;23.70;44.70;;;;;;1548170;77;682;-70
2021/11/14 04:46:58;;;;;;;;;;;23.70;44.70;;;;;;1548151;77;812;-69
2021/11/14 04:49:00;;;;;;;;;;;23.70;44.70;;;;;;1548063;77;657;-69
2021/11/14 04:51:02;;;;;;;;;;;23.70;44.70;;;;;;1549208;75;716;-70
2021/11/14 04:53:04;;;;;;;;;;;23.70;44.70;;;;;;1548015;75;1190;-70
2021/11/14 04:55:06;;;;;;;;;;;23.80;44.70;;;;;;1548981;75;728;-69
2021/11/14 04:57:08;;;;;;;;;;;23.90;44.60;;;;;;1548231;77;783;-70
2021/11/14 04:59:11;;;;;;;;;;;23.90;44.60;;;;;;1547934;77;692;-68
2021/11/14 05:01:12;;;;;;;;;;;23.90;44.50;;;;;;1548178;75;1923;-70
2021/11/14 05:03:14;;;;;;;;;;;23.90;44.40;;;;;;1549179;75;1137;-69
2021/11/14 05:05:16;;;;;;;;;;;23.90;44.50;;;;;;1547988;77;716;-69
2021/11/14 05:07:18;;;;;;;;;;;23.80;44.50;;;;;;1549593;75;740;-69
2021/11/14 05:09:20;;;;;;;;;;;23.80;44.50;;;;;;1575020;75;754;-69
2021/11/14 05:11:22;;;;;;;;;;;23.90;44.50;;;;;;1569002;75;1129;-69
2021/11/14 05:13:24;;;;;;;;;;;23.80;44.50;;;;;;1548231;77;716;-69
2021/11/14 05:15:26;;;;;;;;;;;23.80;44.60;;;;;;1548167;75;736;-71
2021/11/14 05:17:28;;;;;;;;;;;23.70;44.70;;;;;;1547980;77;626;-69
2021/11/14 05:19:29;;;;;;;;;;;23.70;44.80;;;;;;1557254;75;800;-69
2021/11/14 05:21:31;;;;;;;;;;;23.70;44.70;;;;;;1574886;74;1942;-69
2021/11/14 05:23:33;;;;;;;;;;;23.70;44.80;;;;;;1574868;75;1024;-69
2021/11/14 05:25:35;;;;;;;;;;;23.70;44.90;;;;;;1550489;75;687;-69
2021/11/14 05:27:37;;;;;;;;;;;23.70;44.90;;;;;;1547988;77;671;-69
2021/11/14 05:29:39;;;;;;;;;;;23.70;44.90;;;;;;1548135;77;729;-69
2021/11/14 05:31:41;;;;;;;;;;;23.70;44.90;;;;;;1548263;75;1106;-71
2021/11/14 05:33:43;;;;;;;;;;;23.70;45.00;;;;;;1564360;75;650;-68
2021/11/14 05:35:45;;;;;;;;;;;23.60;44.80;;;;;;1574946;74;765;-69
2021/11/14 05:37:46;;;;;;;;;;;23.60;44.90;;;;;;1575070;75;783;-68
2021/11/14 05:39:48;;;;;;;;;;;23.70;45.00;;;;;;1574647;75;732;-69
2021/11/14 05:41:50;;;;;;;;;;;23.70;45.10;;;;;;1573732;74;1942;-69
2021/11/14 05:43:52;;;;;;;;;;;23.70;45.20;;;;;;1575064;74;726;-69
2021/11/14 05:45:54;;;;;;;;;;;23.70;45.10;;;;;;1574785;75;655;-69
2021/11/14 05:47:56;;;;;;;;;;;23.70;45.00;;;;;;1575087;75;742;-69
2021/11/14 05:49:58;;;;;;;;;;;23.70;45.00;;;;;;1575028;75;802;-70
2021/11/14 05:51:59;;;;;;;;;;;23.70;45.00;;;;;;1573482;74;1125;-69
2021/11/14 05:54:01;;;;;;;;;;;23.70;45.00;;;;;;1571439;75;711;-69
2021/11/14 05:56:03;;;;;;;;;;;23.70;45.00;;;;;;1548264;77;736;-69
2021/11/14 05:58:19;;;;;;;;;;;23.80;45.00;;;;;;1547930;77;671;-69
2021/11/14 06:00:12;;;;;;;;;;;23.80;45.00;;;;;;1544966;77;1557;-69
2021/11/14 06:02:20;;;;;;;;;;;23.80;44.90;;;;;;1547596;75;1947;-69
2021/11/14 06:04:26;;;;;;;;;;;23.80;44.80;;;;;;1570131;75;1007;-68
2021/11/14 06:06:20;;;;;;;;;;;23.90;44.80;;;;;;1572470;75;1221;-68
2021/11/14 06:08:22;;;;;;;;;;;23.90;44.70;;;;;;1574874;75;710;-67
2021/11/14 06:10:24;;;;;;;;;;;23.90;44.70;;;;;;1574846;75;677;-69
2021/11/14 06:12:26;;;;;;;;;;;23.90;44.70;;;;;;1573737;75;1105;-69
2021/11/14 06:14:29;;;;;;;;;;;23.90;44.60;;;;;;1574849;75;726;-69
2021/11/14 06:16:31;;;;;;;;;;;23.90;44.50;;;;;;1574997;75;659;-68
2021/11/14 06:18:33;;;;;;;;;;;23.90;44.40;;;;;;1575073;75;766;-68
2021/11/14 06:20:35;;;;;;;;;;;23.90;44.40;;;;;;1574812;75;804;-68
2021/11/14 06:22:37;;;;;;;;;;;24.00;44.40;;;;;;1557174;75;1935;-69
2021/11/14 06:24:39;;;;;;;;;;;24.00;44.30;;;;;;1549204;75;713;-69
2021/11/14 06:26:43;;;;;;;;;;;24.00;44.30;;;;;;1561759;74;657;-70
2021/11/14 06:28:44;;;;;;;;;;;24.00;44.20;;;;;;1574907;75;1791;-69
2021/11/14 06:30:46;;;;;;;;;;;24.00;44.10;;;;;;1575037;75;718;-69
2021/11/14 06:32:48;;;;;;;;;;;24.00;44.10;;;;;;1561115;74;1115;-68
2021/11/14 06:34:50;;;;;;;;;;;24.10;44.20;;;;;;1548135;75;720;-69
2021/11/14 06:36:52;;;;;;;;;;;24.10;44.20;;;;;;1574694;75;1005;-69
2021/11/14 06:38:54;;;;;;;;;;;24.00;44.10;;;;;;1574688;75;702;-69
2021/11/14 06:40:56;;;;;;;;;;;24.00;44.10;;;;;;1588085;74;728;-68
2021/11/14 06:42:57;;;;;;;;;;;24.00;44.10;;;;;;1564773;73;1949;-69
2021/11/14 06:44:59;;;;;;;;;;;23.90;44.00;;;;;;1547950;76;808;-69
2021/11/14 06:47:01;;;;;;;;;;;24.00;44.00;;;;;;1548292;77;712;-68
2021/11/14 06:49:03;;;;;;;;;;;24.00;43.90;;;;;;1548291;77;732;-69
2021/11/14 06:51:05;;;;;;;;;;;24.00;43.90;;;;;;1547890;77;743;-69
2021/11/14 06:53:07;;;;;;;;;;;24.00;43.90;;;;;;1549174;75;1121;-68
2021/11/14 06:55:09;;;;;;;;;;;24.00;43.80;;;;;;1566480;75;615;-68
2021/11/14 06:57:11;;;;;;;;;;;24.00;43.80;;;;;;1574878;75;627;-67
2021/11/14 06:59:13;;;;;;;;;;;24.00;43.90;;;;;;1574978;75;679;-68
2021/11/14 07:01:15;;;;;;;;;;;24.00;43.90;;;;;;1574936;75;711;-68
2021/11/14 07:03:17;;;;;;;;;;;24.10;44.00;;;;;;1573514;74;1938;-69
2021/11/14 07:05:19;;;;;;;;;;;24.00;43.90;;;;;;1574994;75;728;-69
2021/11/14 07:07:20;;;;;;;;;;;24.00;43.90;;;;;;1574899;75;675;-69
2021/11/14 07:09:22;;;;;;;;;;;24.10;44.00;;;;;;1574938;75;661;-68
2021/11/14 07:11:24;;;;;;;;;;;24.10;43.90;;;;;;1575008;75;1126;-68
2021/11/14 07:13:27;;;;;;;;;;;24.00;43.80;;;;;;1559645;74;734;-68
2021/11/14 07:15:28;;;;;;;;;;;24.00;43.90;;;;;;1570259;74;675;-68
2021/11/14 07:17:30;;;;;;;;;;;24.00;43.90;;;;;;1569320;74;713;-68
2021/11/14 07:19:32;;;;;;;;;;;24.00;44.10;;;;;;1572271;74;777;-68
2021/11/14 07:21:34;;;;;;;;;;;23.90;44.20;;;;;;1572066;74;1186;-68
2021/11/14 07:23:36;;;;;;;;;;;23.80;44.30;;;;;;1572615;74;1954;-69
2021/11/14 07:25:38;;;;;;;;;;;24.00;44.30;;;;;;1569006;74;704;-70
2021/11/14 07:27:40;;;;;;;;;;;24.00;44.20;;;;;;1568122;74;750;-69
2021/11/14 07:29:42;;;;;;;;;;;24.00;44.00;;;;;;1572538;74;711;-69
2021/11/14 07:31:43;;;;;;;;;;;24.00;44.00;;;;;;1567473;74;1141;-69
2021/11/14 07:33:45;;;;;;;;;;;23.90;44.10;;;;;;1565227;74;748;-69
2021/11/14 07:35:47;;;;;;;;;;;23.90;44.10;;;;;;1564543;74;723;-69
2021/11/14 07:37:49;;;;;;;;;;;23.90;44.20;;;;;;1570541;75;712;-68
2021/11/14 07:39:51;;;;;;;;;;;23.90;44.10;;;;;;1566313;74;790;-68
2021/11/14 07:41:53;;;;;;;;;;;24.00;44.00;;;;;;1570106;74;1082;-70
2021/11/14 07:43:55;;;;;;;;;;;24.00;44.00;;;;;;1566653;74;1943;-68
2021/11/14 07:45:57;;;;;;;;;;;24.00;43.90;;;;;;1566871;74;816;-69
2021/11/14 07:47:59;;;;;;;;;;;24.00;43.90;;;;;;1566463;74;796;-69
2021/11/14 07:50:01;;;;;;;;;;;24.00;43.80;;;;;;1565925;74;685;-68
2021/11/14 07:52:03;;;;;;;;;;;24.10;43.90;;;;;;1562296;74;1151;-69
2021/11/14 07:54:05;;;;;;;;;;;24.00;43.60;;;;;;1564551;74;730;-68
2021/11/14 07:56:07;;;;;;;;;;;24.00;43.60;;;;;;1566366;74;760;-69
2021/11/14 07:58:08;;;;;;;;;;;24.00;43.60;;;;;;1566612;74;762;-66
2021/11/14 08:00:12;;;;;;;;;;;24.00;43.60;;;;;;1573038;74;766;-68
2021/11/14 08:02:14;;;;;;;;;;;24.00;43.90;;;;;;1571481;74;1950;-65
2021/11/14 08:04:17;;;;;;;;;;;23.90;44.20;;;;;;1569649;74;678;-65
2021/11/14 08:06:22;;;;;;;;;;;23.70;44.50;;;;;;1572584;74;786;-68
2021/11/14 08:08:24;;;;;;;;;;;23.70;44.70;;;;;;1568490;74;765;-69
2021/11/14 08:10:26;;;;;;;;;;;23.70;44.90;;;;;;1572020;74;719;-67
2021/11/14 08:12:28;;;;;;;;;;;23.60;45.00;;;;;;1570070;74;1177;-69
2021/11/14 08:14:30;;;;;;;;;;;23.60;45.00;;;;;;1572040;74;805;-69
2021/11/14 08:16:32;;;;;;;;;;;23.60;45.20;;;;;;1571848;74;756;-69
2021/11/14 08:18:34;;;;;;;;;;;23.60;45.20;;;;;;1568880;74;679;-70
2021/11/14 08:20:36;;;;;;;;;;;23.70;45.30;;;;;;1563738;74;788;-70
2021/11/14 08:22:38;;;;;;;;;;;23.60;45.10;;;;;;1570260;74;1950;-68
2021/11/14 08:24:40;;;;;;;;;;;23.80;45.30;;;;;;1573294;74;830;-69
2021/11/14 08:26:42;;;;;;;;;;;23.70;45.30;;;;;;1571702;74;738;-70
2021/11/14 08:28:43;;;;;;;;;;;23.70;45.30;;;;;;1571853;75;750;-67
2021/11/14 08:30:45;;;;;;;;;;;23.60;45.20;;;;;;1567094;75;722;-69
2021/11/14 08:32:47;;;;;;;;;;;23.60;45.30;;;;;;1567587;75;1133;-68
2021/11/14 08:34:49;;;;;;;;;;;23.70;45.60;;;;;;1570831;74;726;-67
2021/11/14 08:36:51;;;;;;;;;;;23.80;45.90;;;;;;1570597;74;686;-69
2021/11/14 08:38:53;;;;;;;;;;;23.90;46.00;;;;;;1571967;75;702;-67
2021/11/14 08:40:55;;;;;;;;;;;24.00;45.50;;;;;;1571479;75;722;-68
2021/11/14 08:42:57;;;;;;;;;;;24.00;45.20;;;;;;1555081;74;3184;-69
2021/11/14 08:44:59;;;;;;;;;;;24.00;45.10;;;;;;1573350;73;791;-68
2021/11/14 08:47:01;;;;;;;;;;;24.00;45.20;;;;;;1589027;73;743;-70
2021/11/14 08:49:03;;;;;;;;;;;23.90;45.20;;;;;;1582368;73;811;-70
2021/11/14 08:51:05;;;;;;;;;;;24.00;45.00;;;;;;1577976;73;796;-69
2021/11/14 08:53:07;;;;;;;;;;;24.00;44.70;;;;;;1553077;74;1192;-67
2021/11/14 08:55:09;;;;;;;;;;;24.00;44.70;;;;;;1546076;75;723;-70
2021/11/14 08:57:11;;;;;;;;;;;24.00;44.70;;;;;;1553377;75;759;-70
2021/11/14 08:59:13;;;;;;;;;;;24.00;44.60;;;;;;1573184;75;793;-69
2021/11/14 09:01:15;;;;;;;;;;;24.00;44.50;;;;;;1573574;75;971;-69
2021/11/14 09:03:17;;;;;;;;;;;24.00;44.60;;;;;;1569192;74;1932;-69
2021/11/14 09:05:20;;;;;;;;;;;23.90;44.70;;;;;;1551402;75;744;-68
2021/11/14 09:07:22;;;;;;;;;;;23.90;44.80;;;;;;1569194;75;736;-68
2021/11/14 09:09:24;;;;;;;;;;;23.80;44.70;;;;;;1557855;75;778;-70
2021/11/14 09:11:26;;;;;;;;;;;23.80;44.60;;;;;;1559107;75;804;-70
2021/11/14 09:13:27;;;;;;;;;;;23.80;44.70;;;;;;1556280;75;1161;-71
2021/11/14 09:15:29;;;;;;;;;;;23.70;44.70;;;;;;1557567;75;745;-71
2021/11/14 09:17:31;;;;;;;;;;;23.70;44.70;;;;;;1557710;75;918;-71
2021/11/14 09:19:33;;;;;;;;;;;23.70;44.80;;;;;;1542477;75;801;-72
2021/11/14 09:21:35;;;;;;;;;;;23.80;44.80;;;;;;1554555;75;704;-71
2021/11/14 09:23:37;;;;;;;;;;;23.60;44.70;;;;;;1542688;76;1955;-72
2021/11/14 09:25:42;;;;;;;;;;;23.60;44.70;;;;;;1545053;76;670;-71
2021/11/14 09:27:44;;;;;;;;;;;23.70;44.80;;;;;;1552271;76;865;-71
2021/11/14 09:29:46;;;;;;;;;;;23.70;44.80;;;;;;1554451;76;761;-71
2021/11/14 09:31:48;;;;;;;;;;;23.60;44.70;;;;;;1554000;75;1148;-69
2021/11/14 09:33:53;;;;;;;;;;;23.60;44.70;;;;;;1552458;75;751;-71
2021/11/14 09:35:53;;;;;;;;;;;23.60;44.70;;;;;;1562523;75;1644;-71
2021/11/14 09:37:55;;;;;;;;;;;23.60;44.80;;;;;;1552806;74;931;-72
2021/11/14 09:39:57;;;;;;;;;;;23.60;44.70;;;;;;1557238;74;800;-71
2021/11/14 09:41:59;;;;;;;;;;;23.60;44.70;;;;;;1569835;75;1155;-71
2021/11/14 09:44:01;;;;;;;;;;;23.60;44.70;;;;;;1567164;75;1942;-71
2021/11/14 09:46:03;;;;;;;;;;;23.60;44.80;;;;;;1544235;75;686;-71
2021/11/14 09:48:05;;;;;;;;;;;23.50;44.80;;;;;;1537800;75;789;-72
2021/11/14 09:50:08;;;;;;;;;;;23.60;44.80;;;;;;1532300;76;818;-72
2021/11/14 09:52:10;;;;;;;;;;;23.60;44.80;;;;;;1570626;73;1118;-71
2021/11/14 09:54:12;;;;;;;;;;;23.60;44.80;;;;;;1532390;75;647;-71
2021/11/14 09:56:14;;;;;;;;;;;23.60;44.80;;;;;;1539638;75;808;-71
2021/11/14 09:58:16;;;;;;;;;;;23.50;44.90;;;;;;1540483;75;739;-71
2021/11/14 10:00:19;;;;;;;;;;;23.50;44.80;;;;;;1563878;75;720;-71
2021/11/14 10:02:21;;;;;;;;;;;23.50;44.80;;;;;;1552782;74;1174;-71
2021/11/14 10:04:23;;;;;;;;;;;23.60;44.80;;;;;;1555268;74;1974;-72
2021/11/14 10:06:26;;;;;;;;;;;23.50;44.80;;;;;;1555577;74;693;-71
2021/11/14 10:08:29;;;;;;;;;;;23.50;44.90;;;;;;1543812;75;703;-73
2021/11/14 10:10:32;;;;;;;;;;;23.50;44.90;;;;;;1558643;74;1871;-73
2021/11/14 10:12:36;;;;;;;;;;;23.50;44.90;;;;;;1557341;74;1138;-73
2021/11/14 10:14:37;;;;;;;;;;;23.50;44.90;;;;;;1558127;74;1386;-73
2021/11/14 10:16:39;;;;;;;;;;;23.50;44.90;;;;;;1543684;74;720;-73
2021/11/14 10:18:43;;;;;;;;;;;23.40;44.80;;;;;;1550841;75;658;-71
2021/11/14 10:20:45;;;;;;;;;;;23.50;44.90;;;;;;1547129;74;1875;-74
2021/11/14 10:22:47;;;;;;;;;;;23.40;44.80;;;;;;1557940;75;1095;-73
2021/11/14 10:24:49;;;;;;;;;;;23.40;44.70;;;;;;1555317;74;1952;-73
2021/11/14 10:26:51;;;;;;;;;;;23.50;44.90;;;;;;1558075;75;816;-73
2021/11/14 10:28:53;;;;;;;;;;;23.40;44.80;;;;;;1550071;75;721;-73
2021/11/14 10:30:55;;;;;;;;;;;23.50;44.90;;;;;;1546756;76;1181;-73
2021/11/14 10:33:02;;;;;;;;;;;23.40;44.80;;;;;;1576408;73;1129;-73
2021/11/14 10:35:04;;;;;;;;;;;23.40;44.80;;;;;;1555210;74;1171;-73
2021/11/14 10:37:06;;;;;;;;;;;23.50;44.90;;;;;;1564925;75;766;-73
2021/11/14 10:39:10;;;;;;;;;;;23.40;44.80;;;;;;1549861;74;782;-71
2021/11/14 10:41:12;;;;;;;;;;;23.50;44.90;;;;;;1563076;74;1485;-72
2021/11/14 10:43:16;;;;;;;;;;;23.50;44.90;;;;;;1577074;74;1959;-72
2021/11/14 10:45:18;;;;;;;;;;;23.50;45.00;;;;;;1549826;75;1979;-73
2021/11/14 10:47:23;;;;;;;;;;;23.50;44.90;;;;;;1549201;74;738;-72
2021/11/14 10:49:24;;;;;;;;;;;23.60;44.80;;;;;;1547093;75;728;-72
2021/11/14 10:51:28;;;;;;;;;;;23.50;44.80;;;;;;1554196;75;669;-72
2021/11/14 10:53:31;;;;;;;;;;;23.50;44.90;;;;;;1556494;75;1106;-70
2021/11/14 10:55:34;;;;;;;;;;;23.50;45.00;;;;;;1565809;75;713;-72
2021/11/14 10:57:37;;;;;;;;;;;23.50;45.20;;;;;;1543384;75;1876;-72
2021/11/14 10:59:41;;;;;;;;;;;23.50;44.90;;;;;;1552322;75;640;-72
2021/11/14 11:01:44;;;;;;;;;;;23.50;44.70;;;;;;1550663;74;1877;-72
2021/11/14 11:03:48;;;;;;;;;;;23.50;44.40;;;;;;1543380;75;1925;-72
2021/11/14 11:05:50;;;;;;;;;;;23.50;44.00;;;;;;1553719;75;1816;-72
2021/11/14 11:07:53;;;;;;;;;;;23.40;43.60;;;;;;1555730;75;754;-73
2021/11/14 11:09:55;;;;;;;;;;;23.40;43.60;;;;;;1544803;74;783;-72
2021/11/14 11:11:58;;;;;;;;;;;23.30;43.50;;;;;;1553613;74;1211;-72
2021/11/14 11:14:00;;;;;;;;;;;23.30;43.40;;;;;;1552984;75;719;-72
2021/11/14 11:16:03;;;;;;;;;;;23.30;43.20;;;;;;1551406;74;812;-72
2021/11/14 11:18:05;;;;;;;;;;;23.30;43.40;;;;;;1553055;75;783;-73
2021/11/14 11:20:11;;;;;;;;;;;23.30;43.10;;;;;;1559027;75;877;-72
2021/11/14 11:22:13;;;;;;;;;;;23.20;43.10;;;;;;1558862;75;1149;-72
2021/11/14 11:24:22;;;;;;;;;;;23.20;43.00;;;;;;1559830;75;1935;-70
2021/11/14 11:26:24;;;;;;;;;;;23.20;42.90;;;;;;1555230;75;727;-74
2021/11/14 11:28:27;;;;;;;;;;;23.20;42.80;;;;;;1565031;75;795;-70
2021/11/14 11:30:31;;;;;;;;;;;23.10;42.80;;;;;;1554476;75;702;-73
2021/11/14 11:32:32;;;;;;;;;;;23.10;42.70;;;;;;1553030;75;1147;-72
2021/11/14 11:34:34;;;;;;;;;;;23.10;42.70;;;;;;1559607;74;716;-73
2021/11/14 11:36:36;;;;;;;;;;;23.10;42.70;;;;;;1556886;75;784;-72
2021/11/14 11:38:41;;;;;;;;;;;23.00;42.60;;;;;;1552404;74;1056;-73
2021/11/14 11:40:42;;;;;;;;;;;23.00;42.60;;;;;;1561786;74;1633;-73
2021/11/14 11:42:44;;;;;;;;;;;23.10;42.60;;;;;;1554330;74;1162;-74
2021/11/14 11:44:46;;;;;;;;;;;22.80;42.60;;;;;;1546087;75;1910;-72
2021/11/14 11:46:49;;;;;;;;;;;23.00;43.10;;;;;;1556370;74;733;-73
2021/11/14 11:48:53;;;;;;;;;;;23.00;43.40;;;;;;1545911;74;1616;-72
2021/11/14 11:50:56;;;;;;;;;;;23.00;43.60;;;;;;1556942;75;1938;-73
2021/11/14 11:52:58;;;;;;;;;;;23.00;43.80;;;;;;1549980;75;1762;-72
2021/11/14 11:55:00;;;;;;;;;;;23.00;43.90;;;;;;1557371;75;739;-70
2021/11/14 11:57:03;;;;;;;;;;;23.00;44.10;;;;;;1571111;75;746;-72
2021/11/14 11:59:12;;;;;;;;;;;23.00;44.20;;;;;;1558483;75;747;-74
2021/11/14 12:01:21;;;;;;;;;;;23.00;44.20;;;;;;1557080;75;917;-72
2021/11/14 12:03:24;;;;;;;;;;;23.00;44.40;;;;;;1556101;75;1130;-72
2021/11/14 12:05:25;;;;;;;;;;;23.00;44.50;;;;;;1555635;75;1946;-75
2021/11/14 12:07:30;;;;;;;;;;;23.00;44.50;;;;;;1566704;75;730;-73
2021/11/14 12:09:39;;;;;;;;;;;23.00;44.60;;;;;;1557444;75;1688;-72